Woodson Terrace, Missouri
Current Conditions -  °F | °C
As of 2:51 PM on Thursday 20 Nov 2014 (Local Time) from KSTL Reporting Station
Broken Clouds Broken Clouds  
Wind Chill: 31°   Ceiling: 8500
Heat Index: 38°   Visibility: 10mi
Dew Point: 18°   Wind: 10mph
Humidity: 44%   Direction: 260°W
Pressure: 30.21"   Gusts: NA
Location:  38.7422°N, 90.3457°W
Report Text: KSTL 202051Z 26009KT 10SM BKN085 03/M08 A3021 RMK AO2 SLP241 T00331078 55010
Loading
Personal Weather Stations






























Interactive Weather Map New forecast layout! Learn more

10-Day Weather Forecast

Advertisements
Track Severe Weather on mobile